createdAt,value
2019-04-26T00:00:07.501Z,1.57
2019-04-26T00:02:45.360Z,1.27
2019-04-26T00:05:17.036Z,1.00
2019-04-26T00:07:49.011Z,1.27
2019-04-26T00:10:29.965Z,1.03
2019-04-26T00:13:09.840Z,1.40
2019-04-26T00:16:03.747Z,1.53
2019-04-26T00:18:36.031Z,1.50
2019-04-26T00:21:06.996Z,1.30
2019-04-26T00:23:38.677Z,1.40
2019-04-26T00:26:11.094Z,1.30
2019-04-26T00:28:45.480Z,1.40
2019-04-26T00:31:17.289Z,1.17
2019-04-26T00:33:49.283Z,1.43
2019-04-26T00:36:23.553Z,1.30
2019-04-26T00:38:55.317Z,1.30
2019-04-26T00:41:27.991Z,1.30
2019-04-26T00:44:00.158Z,1.50
2019-04-26T00:46:34.661Z,1.60
2019-04-26T00:49:09.731Z,1.53
2019-04-26T00:51:42.563Z,1.50
2019-04-26T00:54:15.433Z,1.83
2019-04-26T00:56:47.669Z,1.80
2019-04-26T00:59:20.491Z,1.60
2019-04-26T01:01:56.556Z,1.60
2019-04-26T01:04:28.219Z,1.70
2019-04-26T01:07:00.350Z,1.43
2019-04-26T01:09:32.349Z,1.30
2019-04-26T01:12:04.052Z,1.40
2019-04-26T01:14:35.757Z,1.60
2019-04-26T01:17:07.405Z,1.47
2019-04-26T01:19:41.500Z,1.53
2019-04-26T01:22:21.217Z,1.67
2019-04-26T01:24:56.722Z,2.00
2019-04-26T01:27:31.669Z,1.53
2019-04-26T01:30:08.830Z,1.53
2019-04-26T01:32:43.921Z,1.73
2019-04-26T01:35:15.630Z,1.67
2019-04-26T01:37:49.483Z,1.77
2019-04-26T01:40:22.821Z,1.83
2019-04-26T01:43:01.937Z,1.83
2019-04-26T01:45:50.429Z,2.17
2019-04-26T01:48:46.848Z,1.90
2019-04-26T01:51:29.452Z,1.77
2019-04-26T01:54:01.333Z,1.87
2019-04-26T01:56:37.808Z,1.80
2019-04-26T01:59:14.281Z,1.90
2019-04-26T02:02:14.690Z,2.07
2019-04-26T02:04:49.309Z,2.03
2019-04-26T02:07:41.115Z,1.87
2019-04-26T02:10:17.290Z,2.00
2019-04-26T02:12:50.537Z,1.93
2019-04-26T02:15:27.190Z,1.60
2019-04-26T02:18:00.932Z,1.63
2019-04-26T02:21:21.552Z,2.03
2019-04-26T02:24:13.850Z,1.70
2019-04-26T02:26:49.632Z,1.70
2019-04-26T02:29:26.962Z,1.70
2019-04-26T02:32:07.306Z,1.47
2019-04-26T02:34:40.090Z,1.90
2019-04-26T02:37:15.415Z,1.50
2019-04-26T02:39:47.240Z,1.70
2019-04-26T02:42:38.973Z,1.40
2019-04-26T02:45:45.473Z,1.63
2019-04-26T02:48:40.003Z,1.50
2019-04-26T02:51:19.252Z,1.30
2019-04-26T02:54:19.662Z,1.40
2019-04-26T02:56:55.302Z,1.50
2019-04-26T02:59:45.892Z,1.37
2019-04-26T03:02:26.683Z,1.40
2019-04-26T03:05:04.194Z,1.27
2019-04-26T03:08:06.837Z,1.30
2019-04-26T03:10:45.406Z,1.50
2019-04-26T03:13:38.648Z,1.47
2019-04-26T03:16:35.165Z,1.63
2019-04-26T03:19:26.560Z,1.63
2019-04-26T03:22:43.395Z,1.60
2019-04-26T03:25:56.592Z,1.60
2019-04-26T03:29:11.333Z,1.60
2019-04-26T03:32:50.463Z,1.57
2019-04-26T03:35:55.516Z,1.73
2019-04-26T03:38:32.538Z,2.13
2019-04-26T03:41:24.987Z,1.77
2019-04-26T03:44:24.294Z,1.80
2019-04-26T03:47:02.714Z,1.77
2019-04-26T03:50:05.051Z,1.80
2019-04-26T03:53:44.590Z,1.60
2019-04-26T03:57:13.199Z,1.83
2019-04-26T04:00:48.161Z,1.90
2019-04-26T04:03:49.765Z,1.90
2019-04-26T04:06:28.961Z,1.70
2019-04-26T04:09:09.187Z,1.80
2019-04-26T04:11:50.515Z,1.90
2019-04-26T04:14:46.767Z,2.07
2019-04-26T04:17:46.140Z,2.00
2019-04-26T04:20:52.883Z,2.10
2019-04-26T04:24:04.423Z,2.07
2019-04-26T04:27:11.956Z,1.90
2019-04-26T04:30:26.223Z,2.10
2019-04-26T04:33:45.704Z,2.40
2019-04-26T04:36:28.851Z,1.67
2019-04-26T04:39:23.070Z,2.00
2019-04-26T04:42:27.046Z,2.03
2019-04-26T04:46:11.613Z,2.50
2019-04-26T04:49:30.563Z,2.27
2019-04-26T04:52:34.729Z,2.40
2019-04-26T04:55:17.989Z,2.30
2019-04-26T04:58:21.994Z,2.17
2019-04-26T05:02:19.182Z,2.47
2019-04-26T05:05:35.073Z,2.07
2019-04-26T05:08:52.592Z,2.50
2019-04-26T05:11:38.212Z,2.13
2019-04-26T05:14:43.667Z,2.10
2019-04-26T05:17:57.372Z,2.17
2019-04-26T05:20:42.828Z,2.10
2019-04-26T05:23:51.716Z,2.13
2019-04-26T05:27:14.488Z,2.67
2019-04-26T05:30:37.359Z,2.23
2019-04-26T05:33:56.723Z,2.37
2019-04-26T05:37:18.325Z,2.20
2019-04-26T05:41:08.854Z,2.40
2019-04-26T05:44:16.357Z,2.17
2019-04-26T05:48:03.182Z,2.43
2019-04-26T05:51:23.839Z,1.87
2019-04-26T05:54:59.401Z,2.20
2019-04-26T05:58:28.994Z,2.30
2019-04-26T06:02:25.214Z,2.47
2019-04-26T06:05:29.019Z,3.00
2019-04-26T06:09:13.827Z,2.23
2019-04-26T06:12:04.150Z,2.37
2019-04-26T06:15:14.923Z,2.57
2019-04-26T06:18:41.040Z,2.43
2019-04-26T06:21:43.039Z,2.20
2019-04-26T06:25:33.919Z,2.77
2019-04-26T06:28:45.575Z,2.67
2019-04-26T06:31:31.932Z,2.33
2019-04-26T06:34:17.904Z,2.60
2019-04-26T06:37:16.452Z,3.03
2019-04-26T06:40:15.976Z,2.90
2019-04-26T06:43:22.353Z,2.93
2019-04-26T06:46:55.126Z,2.97
2019-04-26T06:50:19.736Z,3.00
2019-04-26T06:53:24.514Z,3.03
2019-04-26T06:56:33.894Z,2.90
2019-04-26T06:59:36.264Z,2.70
2019-04-26T07:02:10.301Z,2.80
2019-04-26T07:05:05.376Z,2.73
2019-04-26T07:08:39.351Z,2.47
2019-04-26T07:12:25.510Z,2.67
2019-04-26T07:15:47.769Z,1.97
2019-04-26T07:19:46.493Z,2.57
2019-04-26T07:23:25.210Z,2.10
2019-04-26T07:26:45.660Z,2.70
2019-04-26T07:30:04.127Z,2.70
2019-04-26T07:33:30.685Z,2.60
2019-04-26T07:36:31.142Z,2.20
2019-04-26T07:39:34.966Z,2.27
2019-04-26T07:43:06.047Z,2.40
2019-04-26T07:46:47.969Z,2.33
2019-04-26T07:50:15.692Z,2.10
2019-04-26T07:53:33.450Z,2.37
2019-04-26T07:56:35.088Z,2.50
2019-04-26T08:00:18.050Z,2.53
2019-04-26T08:03:21.057Z,2.43
2019-04-26T08:06:22.395Z,3.30
2019-04-26T08:09:06.008Z,2.73
2019-04-26T08:11:46.158Z,2.77
2019-04-26T08:14:44.972Z,3.43
2019-04-26T08:17:47.104Z,2.77
2019-04-26T08:20:39.308Z,2.67
2019-04-26T08:23:37.317Z,2.87
2019-04-26T08:25:52.661Z,2.80
2019-04-26T08:28:28.188Z,3.00
2019-04-26T08:31:05.956Z,2.70
2019-04-26T08:33:48.987Z,3.17
2019-04-26T08:36:27.024Z,2.93
2019-04-26T08:38:59.118Z,2.83
2019-04-26T08:41:31.227Z,3.30
2019-04-26T08:44:25.941Z,2.60
2019-04-26T08:47:16.744Z,3.20
2019-04-26T08:50:02.452Z,3.13
2019-04-26T08:52:38.074Z,3.10
2019-04-26T08:55:11.556Z,3.50
2019-04-26T08:57:46.751Z,2.93
2019-04-26T09:00:30.920Z,3.53
2019-04-26T09:03:12.155Z,3.37
2019-04-26T09:05:59.342Z,3.53
2019-04-26T09:08:39.189Z,3.87
2019-04-26T09:11:25.653Z,3.53
2019-04-26T09:13:51.610Z,3.97
2019-04-26T09:16:23.873Z,3.83
2019-04-26T09:18:59.359Z,3.73
2019-04-26T09:21:53.658Z,4.40
2019-04-26T09:24:45.426Z,3.70
2019-04-26T09:27:30.296Z,3.13
2019-04-26T09:30:14.510Z,4.23
2019-04-26T09:33:01.993Z,3.53
2019-04-26T09:35:32.931Z,3.33
2019-04-26T09:38:05.190Z,4.03
2019-04-26T09:40:36.918Z,3.73
2019-04-26T09:43:16.773Z,3.70
2019-04-26T09:46:07.162Z,3.47
2019-04-26T09:48:52.884Z,3.43
2019-04-26T09:51:24.954Z,2.67
2019-04-26T09:53:56.736Z,3.33
2019-04-26T09:56:28.451Z,3.53
2019-04-26T09:59:05.624Z,3.60
2019-04-26T10:01:35.529Z,3.63
2019-04-26T10:04:07.290Z,2.90
2019-04-26T10:06:39.001Z,3.40
2019-04-26T10:09:17.298Z,3.53
2019-04-26T10:11:54.672Z,3.47
2019-04-26T10:14:51.305Z,3.47
2019-04-26T10:17:27.230Z,3.70
2019-04-26T10:19:59.094Z,3.30
2019-04-26T10:22:32.929Z,3.47
2019-04-26T10:25:08.096Z,4.10
2019-04-26T10:27:40.789Z,3.60
2019-04-26T10:30:16.486Z,3.37
2019-04-26T10:32:48.341Z,4.20
2019-04-26T10:35:21.721Z,3.93
2019-04-26T10:37:55.246Z,4.67
2019-04-26T10:40:35.712Z,5.43
2019-04-26T10:43:05.917Z,4.20
2019-04-26T10:45:37.927Z,4.20
2019-04-26T10:48:14.086Z,3.90
2019-04-26T10:50:43.172Z,4.60
2019-04-26T10:53:41.316Z,3.80
2019-04-26T10:56:30.816Z,4.10
2019-04-26T10:59:27.454Z,4.30
2019-04-26T11:01:59.519Z,3.13
2019-04-26T11:04:31.343Z,3.00
2019-04-26T11:07:04.695Z,3.60
2019-04-26T11:09:36.397Z,3.50
2019-04-26T11:12:13.392Z,3.03
2019-04-26T11:14:45.183Z,3.23
2019-04-26T11:17:17.813Z,2.80
2019-04-26T11:19:49.911Z,2.63
2019-04-26T11:22:29.010Z,2.97
2019-04-26T11:24:55.134Z,2.80
2019-04-26T11:27:27.022Z,2.60
2019-04-26T11:30:11.144Z,2.77
2019-04-26T11:32:36.862Z,2.63
2019-04-26T11:35:09.881Z,2.43
2019-04-26T11:37:46.148Z,2.87
2019-04-26T11:40:16.570Z,2.80
2019-04-26T11:42:48.434Z,2.60
2019-04-26T11:45:21.486Z,3.93
2019-04-26T11:47:56.529Z,4.30
2019-04-26T11:50:28.677Z,3.93
2019-04-26T11:53:00.472Z,2.77
2019-04-26T11:55:32.192Z,3.50
2019-04-26T11:58:04.055Z,3.30
2019-04-26T12:00:43.775Z,3.50
2019-04-26T12:03:15.607Z,3.40
2019-04-26T12:05:56.099Z,3.60
2019-04-26T12:08:36.747Z,3.83
2019-04-26T12:11:18.189Z,3.40
2019-04-26T12:13:43.460Z,3.67
2019-04-26T12:16:18.857Z,3.30
2019-04-26T12:18:48.854Z,3.37
2019-04-26T12:21:20.604Z,3.63
2019-04-26T12:23:55.571Z,3.53
2019-04-26T12:26:25.856Z,3.00
2019-04-26T12:28:58.669Z,2.80
2019-04-26T12:31:31.657Z,3.23
2019-04-26T12:34:04.650Z,3.07
2019-04-26T12:36:36.417Z,3.30
2019-04-26T12:39:11.337Z,3.50
2019-04-26T12:41:43.233Z,3.30
2019-04-26T12:44:15.322Z,3.53
2019-04-26T12:46:53.519Z,3.23
2019-04-26T12:49:25.452Z,2.57
2019-04-26T12:51:57.187Z,2.90
2019-04-26T12:54:29.010Z,3.10
2019-04-26T12:57:05.860Z,2.93
2019-04-26T12:59:44.040Z,2.50
2019-04-26T13:02:09.339Z,2.50
2019-04-26T13:04:44.511Z,2.23
2019-04-26T13:07:23.745Z,2.27
2019-04-26T13:10:12.923Z,1.80
2019-04-26T13:13:07.239Z,2.10
2019-04-26T13:16:03.242Z,2.00
2019-04-26T13:18:35.045Z,1.87
2019-04-26T13:21:07.184Z,1.60
2019-04-26T13:23:38.954Z,1.70
2019-04-26T13:26:10.735Z,1.57
2019-04-26T13:28:42.621Z,1.80
2019-04-26T13:31:14.417Z,1.80
2019-04-26T13:33:46.238Z,2.20
2019-04-26T13:36:18.088Z,1.83
2019-04-26T13:38:49.895Z,1.70
2019-04-26T13:41:21.821Z,1.80
2019-04-26T13:43:53.580Z,1.80
2019-04-26T13:46:53.482Z,1.40
2019-04-26T13:49:32.949Z,2.07
2019-04-26T13:52:04.998Z,1.90
2019-04-26T13:54:36.697Z,2.00
2019-04-26T13:57:10.073Z,1.90
2019-04-26T13:59:41.970Z,1.63
2019-04-26T14:02:13.669Z,1.60
2019-04-26T14:04:46.547Z,1.90
2019-04-26T14:07:20.100Z,2.00
2019-04-26T14:09:51.817Z,1.83
2019-04-26T14:12:23.558Z,1.70
2019-04-26T14:14:55.366Z,1.87
2019-04-26T14:17:29.702Z,1.70
2019-04-26T14:20:00.764Z,1.70
2019-04-26T14:22:41.013Z,1.80
2019-04-26T14:25:14.122Z,2.20
2019-04-26T14:27:51.614Z,2.00
2019-04-26T14:30:23.613Z,2.00
2019-04-26T14:32:57.285Z,1.93
2019-04-26T14:35:28.893Z,2.13
2019-04-26T14:38:00.735Z,2.10
2019-04-26T14:40:32.876Z,2.00
2019-04-26T14:43:06.968Z,2.27
2019-04-26T14:45:39.964Z,1.90
2019-04-26T14:48:20.500Z,2.10
2019-04-26T14:50:45.440Z,2.30
2019-04-26T14:53:18.756Z,2.30
2019-04-26T14:55:51.291Z,2.20
2019-04-26T14:58:29.992Z,2.27
2019-04-26T15:01:00.797Z,2.30
2019-04-26T15:03:37.994Z,2.00
2019-04-26T15:06:23.669Z,2.30
2019-04-26T15:08:55.723Z,2.43
2019-04-26T15:11:27.481Z,2.03
2019-04-26T15:13:59.317Z,2.23
2019-04-26T15:16:32.940Z,2.33
2019-04-26T15:19:06.328Z,2.10
2019-04-26T15:21:38.312Z,2.30
2019-04-26T15:24:10.238Z,2.30
2019-04-26T15:26:41.957Z,2.90
2019-04-26T15:29:13.667Z,2.50
2019-04-26T15:31:45.499Z,2.77
2019-04-26T15:34:19.260Z,2.20
2019-04-26T15:36:54.045Z,2.30
2019-04-26T15:39:50.331Z,2.80
2019-04-26T15:42:29.453Z,2.53
2019-04-26T15:45:07.420Z,2.50
2019-04-26T15:47:56.899Z,2.27
2019-04-26T15:50:33.733Z,2.60
2019-04-26T15:53:12.755Z,2.07
2019-04-26T15:55:43.523Z,2.20
2019-04-26T15:58:14.911Z,2.30
2019-04-26T16:00:47.897Z,2.10
2019-04-26T16:03:20.723Z,2.40
2019-04-26T16:05:52.661Z,2.10
2019-04-26T16:08:24.395Z,1.93
2019-04-26T16:10:56.272Z,2.40
2019-04-26T16:13:28.090Z,2.50
2019-04-26T16:15:59.833Z,2.20
2019-04-26T16:18:32.340Z,1.97
2019-04-26T16:21:04.211Z,2.17
2019-04-26T16:23:41.148Z,1.80
2019-04-26T16:26:12.869Z,2.23
2019-04-26T16:28:52.199Z,2.20
2019-04-26T16:31:42.143Z,2.20
2019-04-26T16:34:14.241Z,2.47
2019-04-26T16:36:46.210Z,2.37
2019-04-26T16:39:17.977Z,2.47
2019-04-26T16:41:49.841Z,2.23
2019-04-26T16:44:28.269Z,2.13
2019-04-26T16:47:01.430Z,1.87
2019-04-26T16:49:28.569Z,2.20
2019-04-26T16:52:05.442Z,2.30
2019-04-26T16:54:34.368Z,2.00
2019-04-26T16:57:11.377Z,1.73
2019-04-26T16:59:48.906Z,1.77
2019-04-26T17:02:20.467Z,1.83
2019-04-26T17:04:49.326Z,1.97
2019-04-26T17:07:23.107Z,2.00
2019-04-26T17:09:59.046Z,1.50
2019-04-26T17:12:28.170Z,1.60
2019-04-26T17:14:59.989Z,1.80
2019-04-26T17:17:33.136Z,1.50
2019-04-26T17:20:06.601Z,1.50
2019-04-26T17:23:03.119Z,1.20
2019-04-26T17:26:00.194Z,1.40
2019-04-26T17:28:33.091Z,1.10
2019-04-26T17:31:04.838Z,1.20
2019-04-26T17:33:36.631Z,1.30
2019-04-26T17:36:11.311Z,1.13
2019-04-26T17:38:42.136Z,1.17
2019-04-26T17:41:13.974Z,1.10
2019-04-26T17:43:47.463Z,1.50
2019-04-26T17:46:20.020Z,1.50
2019-04-26T17:48:52.839Z,1.10
2019-04-26T17:51:24.742Z,1.20
2019-04-26T17:54:20.468Z,1.13
2019-04-26T17:56:31.426Z,1.10
2019-04-26T17:59:09.403Z,1.33
2019-04-26T18:01:45.309Z,1.10
2019-04-26T18:04:11.329Z,1.00
2019-04-26T18:06:45.427Z,1.27
2019-04-26T18:09:38.010Z,1.40
2019-04-26T18:11:51.344Z,1.20
2019-04-26T18:14:29.966Z,1.20
2019-04-26T18:17:04.711Z,1.20
2019-04-26T18:19:53.434Z,1.27
2019-04-26T18:22:47.502Z,1.30
2019-04-26T18:25:19.666Z,1.00
2019-04-26T18:27:53.601Z,1.13
2019-04-26T18:30:26.613Z,1.37
2019-04-26T18:32:58.608Z,1.30
2019-04-26T18:35:30.358Z,1.50
2019-04-26T18:38:03.653Z,2.60
2019-04-26T18:40:57.286Z,2.80
2019-04-26T18:43:18.865Z,2.50
2019-04-26T18:45:49.794Z,2.97
2019-04-26T18:48:23.509Z,3.80
2019-04-26T18:50:55.426Z,2.50
2019-04-26T18:53:46.446Z,2.87
2019-04-26T18:56:18.259Z,2.00
2019-04-26T18:58:51.666Z,2.30
2019-04-26T19:01:23.426Z,2.40
2019-04-26T19:03:55.222Z,2.13
2019-04-26T19:06:31.724Z,2.50
2019-04-26T19:09:02.367Z,2.30
2019-04-26T19:11:35.743Z,2.57
2019-04-26T19:14:32.628Z,2.00
2019-04-26T19:17:19.292Z,2.13
2019-04-26T19:20:13.282Z,2.40
2019-04-26T19:22:53.230Z,3.27
2019-04-26T19:25:29.302Z,2.70
2019-04-26T19:28:03.523Z,2.50
2019-04-26T19:30:32.509Z,2.37
2019-04-26T19:33:04.879Z,2.43
2019-04-26T19:35:39.412Z,2.50
2019-04-26T19:38:11.993Z,2.30
2019-04-26T19:40:47.718Z,2.50
2019-04-26T19:43:30.192Z,2.53
2019-04-26T19:46:31.611Z,2.47
2019-04-26T19:49:25.891Z,2.70
2019-04-26T19:52:11.705Z,2.37
2019-04-26T19:54:52.910Z,2.10
2019-04-26T19:57:33.389Z,2.60
2019-04-26T20:00:03.751Z,2.60
2019-04-26T20:02:39.226Z,3.70
2019-04-26T20:05:11.780Z,3.20
2019-04-26T20:07:46.822Z,3.30
2019-04-26T20:10:18.818Z,3.63
2019-04-26T20:12:50.655Z,3.10
2019-04-26T20:15:27.958Z,3.20
2019-04-26T20:17:59.798Z,3.57
2019-04-26T20:20:32.843Z,3.10
2019-04-26T20:23:05.882Z,2.90
2019-04-26T20:25:36.811Z,3.63
2019-04-26T20:28:08.544Z,3.70
2019-04-26T20:31:17.602Z,3.37
2019-04-26T20:33:51.826Z,2.90
2019-04-26T20:36:25.602Z,3.03
2019-04-26T20:38:58.728Z,3.30
2019-04-26T20:41:32.674Z,3.43
2019-04-26T20:44:09.688Z,4.13
2019-04-26T20:46:39.207Z,3.77
2019-04-26T20:49:11.326Z,3.80
2019-04-26T20:51:46.316Z,3.90
2019-04-26T20:54:17.947Z,3.43
2019-04-26T20:56:52.559Z,3.37
2019-04-26T20:59:24.375Z,3.60
2019-04-26T21:02:06.917Z,3.57
2019-04-26T21:04:38.045Z,3.67
2019-04-26T21:07:06.719Z,3.40
2019-04-26T21:09:40.869Z,3.80
2019-04-26T21:12:17.027Z,3.20
2019-04-26T21:14:45.566Z,2.87
2019-04-26T21:17:26.387Z,3.50
2019-04-26T21:19:55.003Z,3.43
2019-04-26T21:22:28.755Z,3.43
2019-04-26T21:25:05.702Z,4.17
2019-04-26T21:27:45.288Z,3.60
2019-04-26T21:30:49.600Z,3.20
2019-04-26T21:33:35.350Z,3.20
2019-04-26T21:36:09.983Z,3.43
2019-04-26T21:38:46.734Z,3.27
2019-04-26T21:41:40.316Z,3.10
2019-04-26T21:44:15.631Z,3.40
2019-04-26T21:46:49.618Z,3.57
2019-04-26T21:49:22.304Z,3.17
2019-04-26T21:51:54.592Z,3.23
2019-04-26T21:54:26.322Z,3.37
2019-04-26T21:56:58.176Z,3.07
2019-04-26T21:59:35.217Z,3.47
2019-04-26T22:02:03.994Z,3.53
2019-04-26T22:04:37.685Z,3.77
2019-04-26T22:07:09.644Z,3.63
2019-04-26T22:10:09.460Z,2.87
2019-04-26T22:12:39.907Z,2.80
2019-04-26T22:15:37.484Z,2.30
2019-04-26T22:18:21.199Z,3.27
2019-04-26T22:21:26.740Z,2.40
2019-04-26T22:24:06.299Z,2.50
2019-04-26T22:26:44.396Z,2.40
2019-04-26T22:29:16.627Z,2.67
2019-04-26T22:31:46.501Z,2.43
2019-04-26T22:34:19.898Z,2.30
2019-04-26T22:36:53.768Z,2.60
2019-04-26T22:39:25.839Z,2.03
2019-04-26T22:41:58.420Z,2.30
2019-04-26T22:44:35.008Z,1.93
2019-04-26T22:47:13.909Z,2.13
2019-04-26T22:49:45.431Z,2.10
2019-04-26T22:52:17.400Z,2.13
2019-04-26T22:54:49.149Z,2.27
2019-04-26T22:57:20.846Z,2.07
2019-04-26T22:59:53.508Z,1.77
2019-04-26T23:02:27.620Z,1.90
2019-04-26T23:05:00.636Z,1.87
2019-04-26T23:07:33.279Z,1.53
2019-04-26T23:10:07.765Z,1.50
2019-04-26T23:12:58.019Z,2.10
2019-04-26T23:15:49.572Z,1.63
2019-04-26T23:18:43.838Z,1.43
2019-04-26T23:21:22.565Z,1.53
2019-04-26T23:23:55.295Z,1.30
2019-04-26T23:26:27.208Z,1.40
2019-04-26T23:28:58.905Z,1.40
2019-04-26T23:31:30.641Z,1.23
2019-04-26T23:34:02.962Z,1.40
2019-04-26T23:36:34.921Z,1.23
2019-04-26T23:39:12.121Z,1.27
2019-04-26T23:44:23.505Z,1.47
2019-04-26T23:47:01.293Z,1.70
2019-04-26T23:49:30.469Z,1.83
2019-04-26T23:52:03.700Z,1.73
2019-04-26T23:54:35.963Z,1.80
2019-04-26T23:57:07.613Z,2.10
2019-04-26T23:59:39.332Z,2.00
